Time;durP1;ratioP1;P1;durP2;ratioP2;P2;SDS_P1;SDS_P2;PMS_P1;PMS_P2;Temp;Humidity;BMP_temperature;BMP_pressure;BME280_temperature;BME280_humidity;BME280_pressure;Samples;Min_cycle;Max_cycle;Signal;HPM_P1;HPM_P2
2022/04/23 00:01:48;;;;;;;2.63;0.90;;;;;;;18.22;50.63;95945.56;5114081;28;20388;-27
2022/04/23 00:04:14;;;;;;;2.40;0.73;;;;;;;18.17;50.73;95953.78;5114161;28;20031;-26
2022/04/23 00:06:43;;;;;;;1.98;1.08;;;;;;;18.22;50.36;95942.84;5095843;28;20505;-26
2022/04/23 00:09:08;;;;;;;3.17;1.13;;;;;;;18.27;50.39;95950.38;5114179;28;20954;-26
2022/04/23 00:11:34;;;;;;;3.63;1.27;;;;;;;18.20;50.78;95937.06;5114086;28;20110;-26
2022/04/23 00:14:00;;;;;;;3.40;0.95;;;;;;;18.24;50.44;95943.09;5114403;28;20459;-26
2022/04/23 00:16:26;;;;;;;2.63;1.10;;;;;;;18.19;50.66;95926.59;5113976;28;20035;-26
2022/04/23 00:18:52;;;;;;;2.55;1.25;;;;;;;18.27;50.13;95942.13;5113996;28;20101;-26
2022/04/23 00:21:18;;;;;;;2.60;1.00;;;;;;;18.16;50.61;95936.56;5113831;28;20023;-26
2022/04/23 00:23:47;;;;;;;2.97;1.13;;;;;;;18.16;50.49;95952.28;5114122;28;20027;-26
2022/04/23 00:26:13;;;;;;;2.72;0.90;;;;;;;18.11;50.40;95947.50;5113602;28;20022;-27
2022/04/23 00:28:38;;;;;;;1.38;0.80;;;;;;;18.19;50.48;95954.03;5113842;28;20019;-26
2022/04/23 00:31:05;;;;;;;1.30;0.63;;;;;;;18.18;50.22;95950.53;5113747;28;20494;-27
2022/04/23 00:33:34;;;;;;;2.83;1.00;;;;;;;18.13;50.48;95951.25;5113778;28;20026;-26
2022/04/23 00:35:59;;;;;;;1.83;0.73;;;;;;;18.20;50.17;95947.31;5113720;28;20419;-26
2022/04/23 00:38:25;;;;;;;3.15;0.80;;;;;;;18.23;50.05;95952.56;5113311;28;20103;-26
2022/04/23 00:40:51;;;;;;;2.08;0.98;;;;;;;18.14;50.08;95961.00;5113772;28;20053;-27
2022/04/23 00:43:25;;;;;;;1.00;0.73;;;;;;;18.13;50.11;95964.22;5113389;28;20107;-26
2022/04/23 00:45:51;;;;;;;1.85;0.88;;;;;;;18.10;50.19;95974.19;5113497;28;20027;-26
2022/04/23 00:48:16;;;;;;;2.55;0.80;;;;;;;18.18;49.54;95975.22;5112687;28;20103;-26
2022/04/23 00:50:42;;;;;;;2.05;0.80;;;;;;;18.07;49.76;95969.66;5113820;28;20057;-26
2022/04/23 00:53:09;;;;;;;2.30;0.90;;;;;;;18.06;50.00;95978.38;5113190;28;20443;-26
2022/04/23 00:55:36;;;;;;;2.28;0.80;;;;;;;18.12;49.64;95982.69;5113651;28;20459;-26
2022/04/23 00:58:02;;;;;;;1.90;0.60;;;;;;;18.11;49.68;95983.16;5113467;28;20028;-26
2022/04/23 01:00:28;;;;;;;2.58;0.80;;;;;;;18.07;49.50;95977.88;5116471;28;20023;-26
2022/04/23 01:02:54;;;;;;;2.30;0.80;;;;;;;18.00;49.59;95989.31;5117548;28;20026;-27
2022/04/23 01:05:23;;;;;;;0.82;0.73;;;;;;;18.01;49.53;95981.84;5117851;28;20058;-26
2022/04/23 01:07:51;;;;;;;2.75;0.80;;;;;;;18.06;49.24;95979.13;5117670;28;20396;-26
2022/04/23 01:10:18;;;;;;;2.38;0.70;;;;;;;18.07;48.99;95983.38;5099126;28;20077;-26
2022/04/23 01:12:47;;;;;;;2.20;0.80;;;;;;;18.07;49.29;95986.13;5117389;28;20030;-26
2022/04/23 01:15:16;;;;;;;2.70;1.20;;;;;;;18.05;49.22;95991.34;5117500;28;20019;-26
2022/04/23 01:17:42;;;;;;;3.45;0.90;;;;;;;18.06;49.03;95995.59;5117376;28;20049;-26
2022/04/23 01:20:13;;;;;;;3.60;1.08;;;;;;;18.04;49.04;96008.31;5098754;28;20367;-26
2022/04/23 01:22:41;;;;;;;2.83;1.38;;;;;;;18.00;49.04;95997.53;5099092;28;20039;-26
2022/04/23 01:25:10;;;;;;;2.78;1.10;;;;;;;17.98;49.18;96008.25;5117329;28;20028;-26
2022/04/23 01:27:38;;;;;;;3.10;1.00;;;;;;;17.99;49.22;95995.28;5117346;28;20024;-26
2022/04/23 01:30:06;;;;;;;1.40;0.80;;;;;;;18.03;48.93;95999.31;5098793;28;20051;-26
2022/04/23 01:32:31;;;;;;;3.00;0.88;;;;;;;18.03;48.95;96002.06;5117078;28;20043;-26
2022/04/23 01:34:57;;;;;;;2.70;0.77;;;;;;;18.02;49.07;95989.59;5098927;28;20526;-26
2022/04/23 01:37:22;;;;;;;2.40;1.00;;;;;;;17.94;49.02;95991.25;5117179;28;20379;-26
2022/04/23 01:39:49;;;;;;;4.60;1.05;;;;;;;18.06;48.83;95997.56;5116632;28;20372;-26
2022/04/23 01:42:17;;;;;;;2.35;0.80;;;;;;;17.94;49.33;96002.97;5097863;28;20027;-26
2022/04/23 01:44:48;;;;;;;2.83;1.08;;;;;;;17.98;49.10;95993.78;5116602;28;20080;-26
2022/04/23 01:47:14;;;;;;;1.85;0.85;;;;;;;17.95;49.10;95999.00;5116866;28;20030;-26
2022/04/23 01:49:40;;;;;;;2.08;0.88;;;;;;;17.93;49.03;96001.47;5116432;28;20448;-26
2022/04/23 01:52:06;;;;;;;1.75;0.90;;;;;;;17.95;48.49;95996.25;5116679;28;20024;-26
2022/04/23 01:54:34;;;;;;;2.13;1.00;;;;;;;18.03;48.33;95993.84;5116466;28;20041;-26
2022/04/23 01:57:00;;;;;;;2.55;0.98;;;;;;;17.91;48.99;96000.47;5116580;28;20030;-26
2022/04/23 01:59:26;;;;;;;2.67;1.10;;;;;;;17.93;48.62;96004.19;5116573;28;20019;-26
2022/04/23 02:01:52;;;;;;;2.38;0.98;;;;;;;17.91;48.73;95997.72;5116612;28;20023;-26
2022/04/23 02:04:19;;;;;;;1.33;0.90;;;;;;;17.93;48.10;96004.19;5116554;28;20450;-27
2022/04/23 02:06:45;;;;;;;2.35;1.00;;;;;;;17.86;48.57;96003.91;5116504;28;20097;-26
2022/04/23 02:09:12;;;;;;;1.75;0.88;;;;;;;17.90;48.57;95999.72;5116186;28;20468;-26
2022/04/23 02:11:38;;;;;;;2.55;0.80;;;;;;;17.93;48.75;95995.22;5115240;28;20043;-27
2022/04/23 02:14:04;;;;;;;2.35;0.95;;;;;;;17.93;48.68;95997.97;5116151;28;20074;-26
2022/04/23 02:16:30;;;;;;;2.83;1.13;;;;;;;17.92;48.82;95999.22;5116051;28;20028;-27
2022/04/23 02:18:57;;;;;;;1.00;0.60;;;;;;;17.93;48.51;96006.94;5116269;28;20066;-26
2022/04/23 02:21:24;;;;;;;3.35;1.10;;;;;;;17.86;48.71;96007.41;5097858;28;20027;-26
2022/04/23 02:23:50;;;;;;;1.55;0.98;;;;;;;17.87;48.31;95997.19;5115837;28;20031;-26
2022/04/23 02:26:16;;;;;;;3.70;0.85;;;;;;;17.84;48.35;96007.13;5116070;28;20528;-26
2022/04/23 02:28:41;;;;;;;1.90;0.80;;;;;;;17.83;48.54;96010.34;5116049;28;20024;-26
2022/04/23 02:31:07;;;;;;;2.28;1.00;;;;;;;17.84;48.39;96001.63;5115762;28;20486;-26
2022/04/23 02:33:33;;;;;;;4.38;0.82;;;;;;;17.82;48.23;96011.56;5116050;28;20028;-26
2022/04/23 02:35:59;;;;;;;3.45;1.10;;;;;;;17.87;47.86;96011.66;5115763;28;20494;-26
2022/04/23 02:38:39;;;;;;;2.05;1.00;;;;;;;17.76;48.36;96014.28;5115861;28;20035;-26
2022/04/23 02:41:16;;;;;;;3.22;1.10;;;;;;;17.81;48.44;96018.28;5115482;28;20480;-26
2022/04/23 02:43:57;;;;;;;2.60;0.95;;;;;;;17.81;48.32;96023.78;5114506;28;20066;-26
2022/04/23 02:46:24;;;;;;;2.63;1.05;;;;;;;17.75;48.41;96023.75;5115477;28;20546;-26
2022/04/23 02:48:49;;;;;;;3.72;1.15;;;;;;;17.79;48.21;96034.50;5097304;28;20069;-26
2022/04/23 02:51:16;;;;;;;3.08;1.45;;;;;;;17.86;48.26;96025.84;5115103;28;20100;-26
2022/04/23 02:53:45;;;;;;;2.00;0.85;;;;;;;17.86;48.03;96028.59;5115412;28;20684;-26
2022/04/23 02:56:16;;;;;;;2.55;1.00;;;;;;;17.81;48.17;96038.25;5115648;28;20035;-26
2022/04/23 02:58:43;;;;;;;2.75;0.80;;;;;;;17.86;48.29;96045.78;5115547;28;20360;-26
2022/04/23 03:01:10;;;;;;;4.35;1.42;;;;;;;17.85;48.58;96054.50;5109057;28;20103;-26
2022/04/23 03:03:43;;;;;;;2.53;0.80;;;;;;;17.82;48.50;96049.97;5113802;28;20566;-26
2022/04/23 03:06:09;;;;;;;2.70;0.85;;;;;;;17.79;48.51;96048.22;5115140;28;20024;-26
2022/04/23 03:08:38;;;;;;;1.40;0.80;;;;;;;17.89;48.52;96041.34;5115251;28;20028;-26
2022/04/23 03:11:06;;;;;;;1.95;0.90;;;;;;;17.91;48.46;96036.88;5096812;28;20031;-26
2022/04/23 03:13:34;;;;;;;1.75;0.85;;;;;;;17.85;48.94;96043.53;5115383;28;20168;-26
2022/04/23 03:16:00;;;;;;;2.38;1.00;;;;;;;17.86;48.84;96047.78;5115148;28;20035;-26
2022/04/23 03:18:26;;;;;;;2.10;1.10;;;;;;;17.91;48.81;96047.09;5115011;28;20026;-27
2022/04/23 03:20:58;;;;;;;1.65;0.98;;;;;;;17.91;48.52;96052.59;5096619;28;20032;-26
2022/04/23 03:23:23;;;;;;;3.97;0.95;;;;;;;17.86;49.12;96043.06;5115078;28;20027;-26
2022/04/23 03:25:49;;;;;;;2.50;0.80;;;;;;;17.85;48.99;96047.03;5115186;28;20016;-26
2022/04/23 03:28:16;;;;;;;2.15;1.00;;;;;;;17.92;48.83;96045.88;5115031;28;20020;-26
2022/04/23 03:30:44;;;;;;;2.22;1.00;;;;;;;17.87;48.84;96046.56;5114764;28;20090;-26
2022/04/23 03:33:10;;;;;;;2.38;1.00;;;;;;;17.95;48.78;96042.13;5114892;28;20023;-27
2022/04/23 03:35:35;;;;;;;1.38;0.73;;;;;;;17.90;49.04;96045.59;5096548;28;20015;-26
2022/04/23 03:38:03;;;;;;;1.50;0.73;;;;;;;17.89;49.14;96038.59;5114950;28;20047;-26
2022/04/23 03:40:29;;;;;;;2.38;0.65;;;;;;;17.91;49.07;96047.09;5114751;28;20023;-26
2022/04/23 03:42:55;;;;;;;1.83;0.80;;;;;;;17.88;49.26;96048.06;5114729;28;20460;-26
2022/04/23 03:45:21;;;;;;;1.98;1.13;;;;;;;17.84;49.40;96042.03;5111155;28;20054;-26
2022/04/23 03:47:52;;;;;;;1.75;0.90;;;;;;;17.88;49.32;96048.81;5114459;28;20377;-26
2022/04/23 03:50:20;;;;;;;1.27;0.80;;;;;;;17.92;49.20;96054.09;5114541;28;20476;-26
2022/04/23 03:52:47;;;;;;;1.38;0.70;;;;;;;17.85;49.34;96051.75;5114677;28;20066;-26
2022/04/23 03:55:13;;;;;;;2.35;0.98;;;;;;;17.85;49.28;96047.03;5114545;28;20035;-26
2022/04/23 03:57:46;;;;;;;2.55;1.10;;;;;;;17.85;49.37;96049.78;5096470;28;20028;-26
2022/04/23 04:00:13;;;;;;;1.17;0.80;;;;;;;17.86;49.37;96045.03;5114334;28;20022;-26
2022/04/23 04:02:44;;;;;;;1.85;0.88;;;;;;;17.92;49.19;96045.88;5096106;28;20051;-26
2022/04/23 04:05:10;;;;;;;2.67;1.00;;;;;;;17.85;49.29;96060.00;5114378;28;20034;-26
2022/04/23 04:07:43;;;;;;;1.85;1.10;;;;;;;17.80;49.56;96057.97;5114256;28;20027;-26
2022/04/23 04:10:13;;;;;;;1.65;0.90;;;;;;;17.88;49.31;96056.28;5114147;28;20024;-26
2022/04/23 04:12:38;;;;;;;1.25;0.77;;;;;;;17.82;49.58;96055.47;5114046;28;20106;-26
2022/04/23 04:15:10;;;;;;;2.65;1.38;;;;;;;17.79;49.39;96050.97;5114093;28;20110;-26
2022/04/23 04:17:36;;;;;;;1.73;0.90;;;;;;;17.77;49.61;96058.91;5114343;28;20026;-26
2022/04/23 04:20:13;;;;;;;1.52;0.70;;;;;;;17.72;49.71;96054.13;5113978;28;20031;-26
2022/04/23 04:22:43;;;;;;;1.98;1.08;;;;;;;17.79;49.62;96056.44;5095924;28;20352;-26
2022/04/23 04:25:09;;;;;;;2.30;1.13;;;;;;;17.77;49.69;96054.19;5113905;28;20030;-26
2022/04/23 04:27:36;;;;;;;2.55;0.90;;;;;;;17.84;49.29;96042.03;5113807;28;20034;-26
2022/04/23 04:30:07;;;;;;;2.45;1.30;;;;;;;17.76;49.61;96040.94;5113887;28;20047;-26
2022/04/23 04:32:35;;;;;;;2.33;1.10;;;;;;;17.76;49.73;96046.44;5113697;28;20487;-27
2022/04/23 04:35:01;;;;;;;1.67;1.00;;;;;;;17.69;49.96;96047.59;5113236;28;20077;-26
2022/04/23 04:37:30;;;;;;;1.98;1.05;;;;;;;17.76;49.65;96049.19;5095697;28;20019;-26
2022/04/23 04:39:55;;;;;;;2.30;1.13;;;;;;;17.81;49.50;96064.94;5113774;28;20058;-26
2022/04/23 04:42:20;;;;;;;1.33;1.08;;;;;;;17.67;50.02;96063.81;5113759;28;20471;-26
2022/04/23 04:44:49;;;;;;;1.88;0.90;;;;;;;17.75;49.83;96075.09;5113699;28;20122;-26
2022/04/23 04:47:16;;;;;;;1.88;1.00;;;;;;;17.73;49.79;96074.81;5113615;28;20023;-26
2022/04/23 04:49:42;;;;;;;1.30;1.10;;;;;;;17.70;50.01;96075.78;5113907;28;20475;-26
2022/04/23 04:52:11;;;;;;;1.05;0.90;;;;;;;17.69;49.84;96080.50;5113695;28;20054;-26
2022/04/23 04:54:36;;;;;;;1.77;1.20;;;;;;;17.72;49.88;96073.31;5113641;28;20039;-26
2022/04/23 04:57:02;;;;;;;2.65;1.08;;;;;;;17.70;49.86;96078.53;5113429;28;20031;-26
2022/04/23 04:59:31;;;;;;;1.90;0.90;;;;;;;17.67;50.12;96083.00;5113800;28;20020;-26
2022/04/23 05:01:58;;;;;;;2.65;1.05;;;;;;;17.68;49.93;96078.28;5105381;28;20020;-26
2022/04/23 05:04:23;;;;;;;2.58;1.13;;;;;;;17.66;50.20;96078.75;5091226;28;20027;-26
2022/04/23 05:06:49;;;;;;;2.35;1.10;;;;;;;17.71;49.89;96080.78;5092340;28;20380;-26
2022/04/23 05:09:14;;;;;;;2.08;1.00;;;;;;;17.68;50.13;96086.50;5093124;28;20026;-26
2022/04/23 05:11:40;;;;;;;1.65;1.05;;;;;;;17.72;49.95;96084.28;5093256;28;20028;-27
2022/04/23 05:14:06;;;;;;;2.40;1.02;;;;;;;17.65;50.07;96090.19;5093343;28;20031;-26
2022/04/23 05:16:32;;;;;;;2.45;0.93;;;;;;;17.63;50.27;96081.66;5092984;28;20051;-26
2022/04/23 05:18:58;;;;;;;3.33;1.15;;;;;;;17.65;50.00;96090.19;5093092;28;20072;-26
2022/04/23 05:21:23;;;;;;;2.92;0.90;;;;;;;17.68;49.95;96089.97;5093067;28;20102;-27
2022/04/23 05:23:49;;;;;;;3.72;1.20;;;;;;;17.67;49.86;96085.75;5106402;28;20030;-26
2022/04/23 05:26:14;;;;;;;2.35;1.38;;;;;;;17.67;50.08;96093.22;5111532;28;20625;-26
2022/04/23 05:28:41;;;;;;;4.65;1.10;;;;;;;17.57;50.13;96096.06;5093061;28;20040;-26
2022/04/23 05:31:07;;;;;;;3.38;1.60;;;;;;;17.65;50.26;96093.69;5110965;28;20050;-26
2022/04/23 05:33:35;;;;;;;1.27;0.80;;;;;;;17.63;50.02;96098.91;5111132;28;20028;-26
2022/04/23 05:36:01;;;;;;;1.75;0.82;;;;;;;17.69;49.89;96102.44;5090619;28;20032;-26
2022/04/23 05:38:27;;;;;;;2.60;1.13;;;;;;;17.70;49.83;96105.94;5092891;28;20020;-27
2022/04/23 05:40:52;;;;;;;1.88;1.10;;;;;;;17.71;49.91;96110.19;5092901;28;20030;-26
2022/04/23 05:43:19;;;;;;;3.65;1.20;;;;;;;17.71;49.79;96101.97;5111047;28;20034;-26
2022/04/23 05:45:44;;;;;;;2.47;0.90;;;;;;;17.71;49.73;96097.25;5112074;28;20388;-26
2022/04/23 05:48:10;;;;;;;4.13;1.13;;;;;;;17.70;49.85;96103.97;5114777;28;20019;-26
2022/04/23 05:50:36;;;;;;;3.42;1.17;;;;;;;17.72;49.76;96108.97;5114759;28;20046;-26
2022/04/23 05:53:02;;;;;;;1.88;1.00;;;;;;;17.71;49.71;96108.22;5114860;28;20034;-26
2022/04/23 05:55:27;;;;;;;3.78;1.20;;;;;;;17.74;49.82;96115.47;5114740;28;20047;-26
2022/04/23 05:57:53;;;;;;;2.38;0.90;;;;;;;17.76;49.37;96113.03;5114354;28;20016;-27
2022/04/23 06:00:19;;;;;;;1.83;0.85;;;;;;;17.75;49.60;96118.97;5096169;28;20022;-26
2022/04/23 06:02:44;;;;;;;1.83;0.80;;;;;;;17.69;49.71;96118.16;5114506;28;20053;-26
2022/04/23 06:05:13;;;;;;;1.75;0.80;;;;;;;17.74;49.54;96122.97;5114485;28;20503;-26
2022/04/23 06:07:40;;;;;;;2.20;0.85;;;;;;;17.72;49.85;96125.41;5114206;28;20399;-26
2022/04/23 06:10:07;;;;;;;2.13;1.20;;;;;;;17.74;49.63;96129.19;5113614;28;20736;-26
2022/04/23 06:12:34;;;;;;;3.08;1.52;;;;;;;17.72;49.72;96128.16;5114016;28;20036;-26
2022/04/23 06:14:59;;;;;;;4.50;2.55;;;;;;;17.71;49.71;96126.66;5114249;28;20031;-27
2022/04/23 06:17:26;;;;;;;7.03;3.72;;;;;;;17.69;49.71;96123.63;5112991;28;20028;-26
2022/04/23 06:19:52;;;;;;;6.57;3.50;;;;;;;17.73;49.61;96138.66;5113921;28;20023;-26
2022/04/23 06:22:19;;;;;;;7.40;3.30;;;;;;;17.75;49.53;96135.44;5113290;28;20375;-26
2022/04/23 06:24:46;;;;;;;7.68;2.90;;;;;;;17.69;49.86;96145.56;5098881;28;20099;-26
2022/04/23 06:27:12;;;;;;;3.70;2.38;;;;;;;17.49;50.39;96149.78;5103423;28;20104;-26
2022/04/23 06:29:39;;;;;;;4.80;2.45;;;;;;;17.49;50.55;96154.53;5116055;28;20073;-27
2022/04/23 06:32:05;;;;;;;5.10;2.33;;;;;;;17.45;50.75;96143.00;5115987;28;20026;-26
2022/04/23 06:34:31;;;;;;;4.03;2.05;;;;;;;17.43;50.62;96145.47;5115741;28;20027;-26
2022/04/23 06:36:57;;;;;;;4.63;2.08;;;;;;;17.35;50.68;96150.59;5097626;28;20442;-26
2022/04/23 06:39:22;;;;;;;3.15;1.80;;;;;;;17.32;50.97;96154.28;5115965;28;20107;-27
2022/04/23 06:41:47;;;;;;;3.38;1.77;;;;;;;17.41;50.82;96156.91;5115769;28;20027;-26
2022/04/23 06:44:13;;;;;;;3.83;1.55;;;;;;;17.31;51.00;96158.25;5093164;28;20048;-26
2022/04/23 06:46:39;;;;;;;3.28;1.50;;;;;;;17.24;51.40;96153.94;5094109;28;20044;-26
2022/04/23 06:49:07;;;;;;;5.22;1.35;;;;;;;17.29;51.13;96152.53;5094874;28;20063;-26
2022/04/23 06:51:33;;;;;;;3.00;1.38;;;;;;;17.37;51.18;96153.63;5095238;28;20020;-26
2022/04/23 06:53:58;;;;;;;2.08;1.10;;;;;;;17.38;51.08;96163.34;5094931;28;20035;-26
2022/04/23 06:56:24;;;;;;;2.47;1.15;;;;;;;17.27;51.28;96165.94;5094349;28;20114;-26
2022/04/23 06:58:50;;;;;;;1.90;1.10;;;;;;;17.32;51.38;96157.03;5094459;28;20393;-26
2022/04/23 07:01:17;;;;;;;3.05;0.90;;;;;;;17.33;51.14;96171.47;5094906;28;20106;-26
2022/04/23 07:03:42;;;;;;;2.15;0.98;;;;;;;17.33;51.23;96172.25;5095008;28;20080;-26
2022/04/23 07:06:08;;;;;;;2.35;0.90;;;;;;;17.28;51.49;96170.19;5094972;28;20027;-27
2022/04/23 07:08:33;;;;;;;3.60;0.95;;;;;;;17.26;51.48;96169.91;5094670;28;20099;-26
2022/04/23 07:10:59;;;;;;;2.67;0.80;;;;;;;17.34;50.98;96165.53;5094613;28;20020;-27
2022/04/23 07:13:25;;;;;;;3.95;1.00;;;;;;;16.16;55.28;96168.31;5094250;28;20369;-27
2022/04/23 07:15:52;;;;;;;1.98;0.90;;;;;;;16.71;53.70;96167.03;5093558;28;20417;-28
2022/04/23 07:18:19;;;;;;;1.42;0.90;;;;;;;17.06;52.39;96164.38;5094791;28;20051;-27
2022/04/23 07:20:44;;;;;;;1.92;0.68;;;;;;;17.12;52.20;96165.97;5094917;28;20392;-27
2022/04/23 07:25:54;;;;;;;2.05;1.05;;;;;;;17.02;52.68;96164.56;5094401;28;20027;-27
2022/04/23 07:28:24;;;;;;;1.65;0.63;;;;;;;17.15;52.12;96164.28;5094267;28;20024;-28
2022/04/23 07:30:50;;;;;;;1.80;0.70;;;;;;;17.05;52.45;96166.38;5094421;28;20100;-27
2022/04/23 07:38:44;;;;;;;1.10;0.80;;;;;;;16.99;52.81;96167.50;5094628;28;20458;-28
2022/04/23 07:41:11;;;;;;;3.92;1.20;;;;;;;16.97;52.93;96165.22;5094558;28;20024;-27
2022/04/23 07:43:37;;;;;;;2.97;1.00;;;;;;;17.04;52.56;96164.09;5095135;28;20047;-27
2022/04/23 07:46:02;;;;;;;2.08;0.90;;;;;;;16.65;54.04;96161.50;5096230;28;20185;-28
2022/04/23 07:48:28;;;;;;;1.70;0.98;;;;;;;16.93;53.24;96175.66;5114677;28;20348;-27
2022/04/23 07:50:53;;;;;;;2.33;1.08;;;;;;;16.96;53.35;96182.13;5114384;28;20059;-27
2022/04/23 07:53:19;;;;;;;1.42;0.80;;;;;;;17.02;52.98;96166.56;5114650;28;20049;-28
2022/04/23 07:55:45;;;;;;;1.58;0.88;;;;;;;17.21;52.43;96173.31;5114602;28;20072;-28
2022/04/23 07:58:10;;;;;;;1.50;0.75;;;;;;;17.15;52.73;96180.72;5114282;28;20494;-27
2022/04/23 08:00:40;;;;;;;2.00;0.90;;;;;;;17.26;52.42;96178.13;5114366;28;20019;-28
2022/04/23 08:03:07;;;;;;;3.95;1.10;;;;;;;17.19;52.58;96187.50;5114414;28;20463;-29
2022/04/23 08:05:32;;;;;;;1.75;1.15;;;;;;;17.27;52.41;96182.38;5113927;28;20035;-27
2022/04/23 08:07:59;;;;;;;1.83;0.98;;;;;;;17.19;52.76;96182.00;5114259;28;20019;-27
2022/04/23 08:10:25;;;;;;;1.08;0.80;;;;;;;17.17;53.06;96186.47;5113191;28;20027;-27
2022/04/23 08:12:51;;;;;;;1.48;0.93;;;;;;;16.98;53.90;96196.13;5114114;28;20023;-28
2022/04/23 08:15:17;;;;;;;3.03;1.00;;;;;;;17.19;53.08;96203.16;5113906;28;20026;-28
2022/04/23 08:17:42;;;;;;;2.08;0.90;;;;;;;17.27;52.62;96209.78;5114064;28;20035;-27
2022/04/23 08:20:11;;;;;;;2.17;0.90;;;;;;;17.29;52.60;96204.59;5114124;28;20023;-29
2022/04/23 08:22:36;;;;;;;2.42;1.10;;;;;;;17.32;52.52;96211.09;5111890;28;20026;-27
2022/04/23 08:25:03;;;;;;;1.67;0.95;;;;;;;17.17;53.15;96200.19;5113172;28;20016;-29
2022/04/23 08:27:28;;;;;;;2.00;1.15;;;;;;;17.02;53.75;96204.91;5113769;28;20031;-27
2022/04/23 08:32:38;;;;;;;2.25;1.08;;;;;;;17.19;53.41;96206.66;5113743;28;20034;-28
2022/04/23 08:35:06;;;;;;;1.27;0.70;;;;;;;17.18;53.24;96220.88;5113989;28;20027;-27
2022/04/23 08:37:34;;;;;;;1.65;1.17;;;;;;;17.19;53.29;96225.84;5113764;28;20049;-27
2022/04/23 08:40:00;;;;;;;3.78;1.23;;;;;;;16.40;55.81;96230.44;5113991;28;20025;-27
2022/04/23 08:42:26;;;;;;;2.22;0.90;;;;;;;16.84;54.56;96225.03;5113754;28;20102;-28
2022/04/23 08:44:54;;;;;;;2.15;0.88;;;;;;;17.14;53.60;96234.00;5113021;28;20537;-27
2022/04/23 08:47:24;;;;;;;2.47;1.02;;;;;;;17.10;53.56;96219.72;5095556;28;20505;-27
2022/04/23 08:49:56;;;;;;;3.72;1.20;;;;;;;17.07;53.49;96223.41;5113506;28;20016;-27
2022/04/23 08:52:32;;;;;;;5.05;1.25;;;;;;;16.96;54.13;96234.94;5113673;28;20028;-27
2022/04/23 08:55:00;;;;;;;1.98;0.82;;;;;;;17.11;53.57;96232.19;5095316;28;20102;-28
2022/04/23 08:57:26;;;;;;;1.67;0.73;;;;;;;17.00;53.75;96227.31;5113816;28;20073;-27
2022/04/23 08:59:56;;;;;;;2.25;0.90;;;;;;;17.07;53.41;96224.16;5113517;28;20032;-27
2022/04/23 09:02:23;;;;;;;4.63;1.33;;;;;;;17.01;53.61;96230.78;5113473;28;20027;-27
2022/04/23 09:04:49;;;;;;;2.30;1.20;;;;;;;17.00;53.87;96243.75;5113538;28;20019;-27
2022/04/23 09:07:22;;;;;;;3.38;1.38;;;;;;;17.08;53.35;96224.91;5113504;28;20034;-27
2022/04/23 09:09:49;;;;;;;4.80;1.33;;;;;;;17.06;53.60;96238.38;5113491;28;20032;-27
2022/04/23 09:12:17;;;;;;;3.08;1.30;;;;;;;17.04;53.40;96244.31;5113534;28;20098;-27
2022/04/23 09:14:48;;;;;;;3.08;1.40;;;;;;;17.04;53.56;96249.03;5113435;28;20016;-27
2022/04/23 09:25:43;;;;;;;1.48;1.10;;;;;;;17.17;53.13;96280.41;5117350;28;20395;-28
2022/04/23 09:28:28;;;;;;;2.83;1.30;;;;;;;17.22;53.25;96273.47;5117216;28;20047;-27
2022/04/23 09:30:55;;;;;;;2.63;1.20;;;;;;;17.23;53.18;96264.78;5116999;28;20020;-27
2022/04/23 09:33:27;;;;;;;3.75;1.30;;;;;;;17.03;53.68;96255.75;5117293;28;20023;-28
2022/04/23 09:43:29;;;;;;;2.33;1.13;;;;;;;16.91;54.01;96281.44;5115599;28;20119;-27
2022/04/23 09:46:05;;;;;;;2.65;1.20;;;;;;;16.71;54.56;96271.09;5116647;28;20508;-28
2022/04/23 09:48:31;;;;;;;1.63;1.25;;;;;;;16.83;54.14;96264.59;5116945;28;20024;-27
2022/04/23 09:50:58;;;;;;;4.60;1.30;;;;;;;16.75;54.36;96269.69;5116812;28;20536;-27
2022/04/23 09:53:27;;;;;;;3.50;1.70;;;;;;;17.06;53.60;96265.75;5116888;28;20379;-27
2022/04/23 09:56:04;;;;;;;3.55;1.33;;;;;;;17.28;52.77;96270.84;5098297;28;20027;-28
2022/04/23 09:58:31;;;;;;;2.80;1.02;;;;;;;17.37;52.44;96270.72;5116678;28;20028;-29
2022/04/23 10:00:58;;;;;;;3.05;1.20;;;;;;;17.33;52.51;96262.69;5116611;28;20023;-27
2022/04/23 10:03:32;;;;;;;1.92;1.02;;;;;;;17.37;52.01;96263.25;5116828;28;20106;-28
2022/04/23 10:05:58;;;;;;;;;;;;;;;17.45;51.91;96258.91;5116532;28;20032;-27
2022/04/23 10:08:29;;;;;;;3.35;2.22;;;;;;;17.39;52.22;96254.56;5116480;28;19908;-27
2022/04/23 10:11:13;;;;;;;3.90;1.33;;;;;;;17.41;51.95;96258.34;5116130;28;20112;-27
2022/04/23 10:13:41;;;;;;;2.95;1.40;;;;;;;17.33;52.45;96257.22;5116434;28;20075;-27
2022/04/23 10:16:10;;;;;;;4.72;1.50;;;;;;;17.32;52.25;96263.94;5116231;28;20024;-27
2022/04/23 10:18:39;;;;;;;2.75;1.30;;;;;;;17.40;51.86;96264.31;5103685;28;20464;-28
2022/04/23 10:21:10;;;;;;;2.55;1.17;;;;;;;17.35;52.18;96273.19;5112403;28;20042;-28
2022/04/23 10:23:58;;;;;;;3.63;1.60;;;;;;;17.28;52.30;96265.38;5115606;28;20387;-27
2022/04/23 10:26:38;;;;;;;3.15;1.50;;;;;;;17.21;52.30;96266.50;5115795;28;20054;-28
2022/04/23 10:29:11;;;;;;;2.78;1.10;;;;;;;17.26;52.36;96263.09;5115777;28;20083;-28
2022/04/23 10:31:37;;;;;;;2.00;1.20;;;;;;;17.28;52.24;96255.16;5115512;28;20425;-28
2022/04/23 10:34:03;;;;;;;4.63;1.73;;;;;;;17.39;51.68;96260.81;5115468;28;20035;-27
2022/04/23 10:36:31;;;;;;;3.38;1.48;;;;;;;17.46;51.46;96254.16;5115815;28;20030;-28
2022/04/23 10:39:19;;;;;;;4.22;1.30;;;;;;;17.50;51.24;96258.22;5115733;28;20038;-29
2022/04/23 10:41:45;;;;;;;3.13;1.20;;;;;;;17.41;51.54;96263.84;5115893;28;20027;-27
2022/04/23 10:44:12;;;;;;;2.92;1.20;;;;;;;17.31;51.96;96259.66;5113585;28;20047;-29
2022/04/23 10:46:38;;;;;;;2.85;1.10;;;;;;;17.46;51.53;96252.19;5113622;28;20392;-27
2022/04/23 10:49:19;;;;;;;4.63;1.10;;;;;;;17.33;52.17;96273.66;5095188;28;20020;-29
2022/04/23 10:51:58;;;;;;;4.72;1.30;;;;;;;17.28;52.07;96260.63;5095374;28;20026;-28
2022/04/23 10:54:39;;;;;;;4.97;1.30;;;;;;;17.42;51.60;96265.34;5113600;28;20028;-28
2022/04/23 10:57:09;;;;;;;3.08;1.05;;;;;;;17.51;51.40;96265.22;5111812;28;20027;-27
2022/04/23 10:59:48;;;;;;;1.40;1.00;;;;;;;17.40;51.79;96256.84;5113543;28;20111;-28
2022/04/23 11:02:20;;;;;;;3.67;1.42;;;;;;;17.44;52.46;96268.34;5113379;28;20055;-28
2022/04/23 11:13:58;;;;;;;2.25;1.00;;;;;;;19.15;48.22;96242.75;5023048;28;20075;-30
2022/04/23 11:16:30;;;;;;;3.08;1.13;;;;;;;19.13;48.09;96247.97;5027852;28;20049;-29
2022/04/23 11:18:59;;;;;;;2.30;1.40;;;;;;;19.10;48.32;96240.69;5029983;28;20065;-29
2022/04/23 11:21:27;;;;;;;2.40;1.08;;;;;;;19.00;48.21;96236.59;5029590;28;20037;-30
2022/04/23 11:23:55;;;;;;;6.95;1.27;;;;;;;18.91;48.37;96228.53;5029833;28;20034;-29
2022/04/23 11:26:22;;;;;;;3.65;1.48;;;;;;;19.16;48.18;96216.00;5029738;28;20516;-29
2022/04/23 11:29:00;;;;;;;2.35;1.15;;;;;;;19.08;48.23;96220.41;5013210;28;20529;-30
2022/04/23 11:31:26;;;;;;;3.60;1.10;;;;;;;19.22;47.46;96203.81;5029737;28;20549;-30
2022/04/23 11:33:55;;;;;;;2.72;1.20;;;;;;;19.33;47.20;96198.38;5029748;28;20124;-29
2022/04/23 11:36:28;;;;;;;2.53;0.88;;;;;;;19.26;46.81;96195.34;5029778;28;20468;-29
2022/04/23 11:38:59;;;;;;;2.78;1.05;;;;;;;19.18;47.85;96202.50;5029401;28;20029;-30
2022/04/23 11:41:33;;;;;;;3.30;0.82;;;;;;;19.19;47.84;96198.50;5029854;28;20063;-29
2022/04/23 11:44:15;;;;;;;1.60;0.65;;;;;;;19.53;47.12;96194.78;5029143;28;20049;-30
2022/04/23 11:46:49;;;;;;;5.45;1.40;;;;;;;19.33;47.28;96200.38;5039929;28;20041;-30
2022/04/23 11:49:31;;;;;;;2.15;0.90;;;;;;;19.12;47.48;96193.47;5094088;28;20096;-29
2022/04/23 11:52:05;;;;;;;2.65;1.02;;;;;;;19.22;46.51;96197.53;5113247;28;20478;-30
2022/04/23 11:54:38;;;;;;;3.72;1.15;;;;;;;19.23;46.69;96207.31;5114256;28;20070;-30
2022/04/23 11:57:05;;;;;;;0.93;0.80;;;;;;;19.48;46.51;96198.22;5114357;28;20023;-30
2022/04/23 11:59:44;;;;;;;2.10;0.98;;;;;;;19.52;46.46;96198.03;5114335;28;20023;-30
2022/04/23 12:02:19;;;;;;;1.70;0.95;;;;;;;19.39;46.41;96206.69;5114386;28;20019;-29
2022/04/23 12:04:46;;;;;;;1.33;0.77;;;;;;;19.27;46.57;96196.84;5095844;28;20096;-30
2022/04/23 12:07:13;;;;;;;3.53;0.90;;;;;;;19.32;46.53;96193.38;5114241;28;20379;-29
2022/04/23 12:09:46;;;;;;;3.40;0.80;;;;;;;19.30;46.78;96179.34;5114053;28;20357;-30
2022/04/23 12:12:16;;;;;;;4.38;0.90;;;;;;;19.33;46.70;96181.13;5114055;28;20023;-30
2022/04/23 12:15:00;;;;;;;4.80;1.25;;;;;;;19.30;46.63;96190.34;5113947;28;20498;-30